createdAt,value
2017-08-04T10:46:21.262Z,61.30
2017-08-04T10:48:49.327Z,57.40
2017-08-04T10:51:17.382Z,57.70
2017-08-04T10:53:45.464Z,57.20
2017-08-04T10:56:13.526Z,57.50
2017-08-04T10:58:41.631Z,57.10
2017-08-04T11:01:09.703Z,57.20
2017-08-04T11:03:37.812Z,57.20
2017-08-04T11:06:06.623Z,56.90
2017-08-04T11:08:34.691Z,56.90
2017-08-04T11:11:02.770Z,56.60
2017-08-04T11:13:30.840Z,56.10
2017-08-04T11:15:58.934Z,55.10
2017-08-04T11:18:26.998Z,54.60
2017-08-04T11:20:55.102Z,55.40
2017-08-04T11:23:23.161Z,55.80
2017-08-04T11:25:51.226Z,56.70
2017-08-04T11:28:19.298Z,57.40
2017-08-04T11:30:47.370Z,57.70
2017-08-04T11:33:15.467Z,56.90
2017-08-04T11:35:43.557Z,57.40
2017-08-04T11:38:11.620Z,56.00
2017-08-04T11:40:39.706Z,55.10
2017-08-04T11:43:07.770Z,55.60
2017-08-04T11:45:35.858Z,55.40
2017-08-04T11:48:03.929Z,55.10
2017-08-04T11:50:31.990Z,55.40
2017-08-04T11:53:00.092Z,55.10
2017-08-04T11:55:28.143Z,54.80
2017-08-04T11:57:56.672Z,54.30
2017-08-04T12:00:25.529Z,53.50
2017-08-04T12:02:53.580Z,53.50
2017-08-04T12:05:21.661Z,53.40
2017-08-04T12:07:49.746Z,53.20
2017-08-04T12:10:17.823Z,52.80
2017-08-04T12:12:45.921Z,53.70
2017-08-04T12:15:14.763Z,55.70
2017-08-04T12:17:43.444Z,55.60
2017-08-04T12:20:11.512Z,56.10
2017-08-04T12:22:39.587Z,56.60
2017-08-04T12:25:07.684Z,55.90
2017-08-04T12:27:35.756Z,56.00
2017-08-04T12:30:04.660Z,55.70
2017-08-04T12:32:33.503Z,56.20
2017-08-04T12:35:01.596Z,55.40
2017-08-04T12:37:29.654Z,56.30
2017-08-04T12:39:57.746Z,56.10
2017-08-04T12:42:25.791Z,55.20
2017-08-04T12:44:54.646Z,54.90
2017-08-04T12:47:22.698Z,54.90
2017-08-04T12:49:50.775Z,55.50
2017-08-04T12:52:18.858Z,55.70
2017-08-04T12:54:46.930Z,57.20
2017-08-04T12:57:15.005Z,57.40
2017-08-04T12:59:43.090Z,56.60
2017-08-04T13:02:11.155Z,56.70
2017-08-04T13:04:39.235Z,57.10
2017-08-04T13:07:07.298Z,57.00
2017-08-04T13:09:35.406Z,57.60
2017-08-04T13:12:03.481Z,57.70
2017-08-04T13:14:31.555Z,58.80
2017-08-04T13:16:59.762Z,59.10
2017-08-04T13:19:27.840Z,58.90
2017-08-04T13:21:55.924Z,57.80
2017-08-04T13:24:23.975Z,57.40
2017-08-04T13:26:52.051Z,57.10
2017-08-04T13:29:20.143Z,58.40
2017-08-04T13:31:48.223Z,57.90
2017-08-04T13:34:17.067Z,58.90
2017-08-04T13:36:45.120Z,58.40
2017-08-04T13:39:13.215Z,58.30
2017-08-04T13:41:41.283Z,56.30
2017-08-04T13:44:09.387Z,56.80
2017-08-04T13:46:37.440Z,57.10
2017-08-04T13:49:05.668Z,57.40
2017-08-04T13:51:33.755Z,58.10
2017-08-04T13:54:01.832Z,58.10
2017-08-04T13:56:29.903Z,57.40
2017-08-04T13:58:57.986Z,57.70
2017-08-04T14:01:26.069Z,58.20
2017-08-04T14:03:54.147Z,56.90
2017-08-04T14:06:22.201Z,56.60
2017-08-04T14:08:50.284Z,57.10
2017-08-04T14:11:18.343Z,56.70
2017-08-04T14:13:46.428Z,56.50
2017-08-04T14:16:14.515Z,56.90
2017-08-04T14:18:43.383Z,55.70
2017-08-04T14:21:11.473Z,55.60
2017-08-04T14:23:39.529Z,56.40
2017-08-04T14:26:07.617Z,56.70
2017-08-04T14:28:35.661Z,56.40
2017-08-04T14:31:03.734Z,55.70
2017-08-04T14:33:31.818Z,55.50
2017-08-04T14:35:59.914Z,55.30
2017-08-04T14:38:28.753Z,55.80
2017-08-04T14:40:57.043Z,55.80
2017-08-04T14:43:25.163Z,56.30
2017-08-04T14:45:53.232Z,55.40
2017-08-04T14:48:21.351Z,54.70
2017-08-04T14:50:49.430Z,55.30
2017-08-04T14:53:18.243Z,56.00
2017-08-04T14:55:46.350Z,56.00
2017-08-04T14:58:14.465Z,55.90
2017-08-04T15:00:43.304Z,55.80
2017-08-04T15:03:11.394Z,55.80
2017-08-04T15:05:39.642Z,56.00
2017-08-04T15:08:08.097Z,56.90
2017-08-04T15:10:37.177Z,56.90
2017-08-04T15:13:05.588Z,56.80
2017-08-04T15:15:33.998Z,57.20
2017-08-04T15:18:02.082Z,57.60
2017-08-04T15:20:30.160Z,58.20
2017-08-04T15:22:58.210Z,58.20
2017-08-04T15:25:26.295Z,58.30
2017-08-04T15:27:54.365Z,58.10
2017-08-04T15:30:22.471Z,57.50
2017-08-04T15:32:51.319Z,57.90
2017-08-04T15:35:19.450Z,57.80
2017-08-04T15:37:47.542Z,57.50
2017-08-04T15:40:15.603Z,58.10
2017-08-04T15:42:43.672Z,57.40
2017-08-04T15:45:11.849Z,57.80
2017-08-04T15:47:39.915Z,57.90
2017-08-04T15:50:07.995Z,58.00
2017-08-04T15:52:36.068Z,58.20
2017-08-04T15:55:04.141Z,57.70
2017-08-04T15:57:33.015Z,59.10
2017-08-04T16:00:01.063Z,58.50
2017-08-04T16:02:29.164Z,57.90
2017-08-04T16:04:57.228Z,58.00
2017-08-04T16:07:25.298Z,58.30
2017-08-04T16:09:53.404Z,57.90
2017-08-04T16:12:22.237Z,57.50
2017-08-04T16:14:50.303Z,57.40
2017-08-04T16:17:18.387Z,57.40
2017-08-04T16:19:46.474Z,57.90
2017-08-04T16:22:14.543Z,57.50
2017-08-04T16:24:42.680Z,57.90
2017-08-04T16:27:10.749Z,58.00
2017-08-04T16:29:38.835Z,57.40
2017-08-04T16:32:06.898Z,57.50
2017-08-04T16:34:34.957Z,56.90
2017-08-04T16:37:03.137Z,57.30
2017-08-04T16:39:31.194Z,57.60
2017-08-04T16:41:59.288Z,57.40
2017-08-04T16:44:27.372Z,57.20
2017-08-04T16:46:55.458Z,57.30
2017-08-04T16:49:23.536Z,57.10
2017-08-04T16:51:51.595Z,56.70
2017-08-04T16:54:20.411Z,57.40
2017-08-04T16:56:48.478Z,57.70
2017-08-04T16:59:16.540Z,57.80
2017-08-04T17:01:44.621Z,58.40
2017-08-04T17:04:12.679Z,58.10
2017-08-04T17:06:40.751Z,58.00
2017-08-04T17:09:08.839Z,58.30
2017-08-04T17:11:37.703Z,58.40
2017-08-04T17:14:05.759Z,58.30
2017-08-04T17:16:33.839Z,58.80
2017-08-04T17:19:01.930Z,58.70
2017-08-04T17:21:29.987Z,58.50
2017-08-04T17:23:58.098Z,58.10
2017-08-04T17:26:26.928Z,59.00
2017-08-04T17:28:54.984Z,58.40
2017-08-04T17:31:23.072Z,58.10
2017-08-04T17:33:51.130Z,57.90
2017-08-04T17:36:19.228Z,57.80
2017-08-04T17:38:47.314Z,56.80
2017-08-04T17:41:15.399Z,56.70
2017-08-04T17:43:43.873Z,56.50
2017-08-04T17:46:12.376Z,56.90
2017-08-04T17:48:40.465Z,57.20
2017-08-04T17:51:09.290Z,57.60
2017-08-04T17:53:37.391Z,58.10
2017-08-04T17:56:05.482Z,57.50
2017-08-04T17:58:37.300Z,58.00
2017-08-04T18:01:05.379Z,58.00
2017-08-04T18:03:33.451Z,58.40
2017-08-04T18:06:01.534Z,58.00
2017-08-04T18:08:29.597Z,58.30
2017-08-04T18:10:57.707Z,58.30
2017-08-04T18:13:25.786Z,58.30
2017-08-04T18:15:54.724Z,58.80
2017-08-04T18:18:22.790Z,58.60
2017-08-04T18:20:50.865Z,58.80
2017-08-04T18:23:18.960Z,58.70
2017-08-04T18:25:47.072Z,58.50
2017-08-04T18:28:15.948Z,58.30
2017-08-04T18:30:44.014Z,58.20
2017-08-04T18:33:12.893Z,58.70
2017-08-04T18:35:41.109Z,58.60
2017-08-04T18:38:09.165Z,59.10
2017-08-04T18:40:38.010Z,59.30
2017-08-04T18:43:06.089Z,59.20
2017-08-04T18:45:34.178Z,59.20
2017-08-04T18:48:03.012Z,58.90
2017-08-04T18:50:31.080Z,58.70
2017-08-04T18:52:59.180Z,59.20
2017-08-04T18:55:27.248Z,59.20
2017-08-04T18:57:55.334Z,59.30
2017-08-04T19:00:23.407Z,59.20
2017-08-04T19:02:51.471Z,59.10
2017-08-04T19:05:19.566Z,59.30
2017-08-04T19:07:48.412Z,60.30
2017-08-04T19:10:16.495Z,59.50
2017-08-04T19:12:44.595Z,59.30
2017-08-04T19:15:12.785Z,59.30
2017-08-04T19:17:41.620Z,59.60
2017-08-04T19:20:09.692Z,59.60
2017-08-04T19:22:37.787Z,59.10
2017-08-04T19:25:05.884Z,59.30
2017-08-04T19:27:34.714Z,59.50
2017-08-04T19:30:02.814Z,59.40
2017-08-04T19:32:30.911Z,59.40
2017-08-04T19:34:58.967Z,59.30
2017-08-04T19:37:27.087Z,59.50
2017-08-04T19:39:55.118Z,59.30
2017-08-04T19:42:23.969Z,59.40
2017-08-04T19:44:52.047Z,59.30
2017-08-04T19:47:20.118Z,59.50
2017-08-04T19:49:48.206Z,59.40
2017-08-04T19:52:16.270Z,59.40
2017-08-04T19:54:44.364Z,59.70
2017-08-04T19:57:12.458Z,59.50
2017-08-04T19:59:40.520Z,59.60
2017-08-04T20:02:08.603Z,59.30
2017-08-04T20:04:36.678Z,59.30
2017-08-04T20:07:04.826Z,59.30
2017-08-04T20:09:32.940Z,59.70
2017-08-04T20:12:01.003Z,59.90
2017-08-04T20:14:29.836Z,61.10
2017-08-04T20:16:57.935Z,60.20
2017-08-04T20:19:26.039Z,59.90
2017-08-04T20:21:54.095Z,60.00
2017-08-04T20:24:22.220Z,59.70
2017-08-04T20:26:51.045Z,60.00
2017-08-04T20:29:19.124Z,59.90
2017-08-04T20:31:47.200Z,60.70
2017-08-04T20:34:15.280Z,61.00
2017-08-04T20:36:43.351Z,61.00
2017-08-04T20:39:11.419Z,61.50
2017-08-04T20:41:39.511Z,61.90
2017-08-04T20:44:08.339Z,62.30
2017-08-04T20:46:36.409Z,62.10
2017-08-04T20:49:04.481Z,62.30
2017-08-04T20:51:32.563Z,62.50
2017-08-04T20:54:01.403Z,62.50
2017-08-04T20:56:29.491Z,62.10
2017-08-04T20:58:57.572Z,62.30
2017-08-04T21:01:25.660Z,62.20
2017-08-04T21:03:53.729Z,62.50
2017-08-04T21:06:21.794Z,62.40
2017-08-04T21:08:49.880Z,62.60
2017-08-04T21:11:18.740Z,64.40
2017-08-04T21:13:46.799Z,63.40
2017-08-04T21:16:14.863Z,63.50
2017-08-04T21:18:42.991Z,63.50
2017-08-04T21:21:11.060Z,63.60
2017-08-04T21:23:39.907Z,64.60
2017-08-04T21:26:07.969Z,63.60
2017-08-04T21:28:36.055Z,63.70
2017-08-04T21:31:04.139Z,63.70
2017-08-04T21:33:32.197Z,63.90
2017-08-04T21:36:00.286Z,64.40
2017-08-04T21:38:28.391Z,64.60
2017-08-04T21:40:57.212Z,64.50
2017-08-04T21:43:25.299Z,64.30
2017-08-04T21:45:53.386Z,64.20
2017-08-04T21:48:21.482Z,63.90
2017-08-04T21:50:49.551Z,63.90
2017-08-04T21:53:17.619Z,64.30
2017-08-04T21:55:45.711Z,64.40
2017-08-04T21:58:13.760Z,64.90
2017-08-04T22:00:41.839Z,65.20
2017-08-04T22:03:09.910Z,65.50
2017-08-04T22:05:37.996Z,65.70
2017-08-04T22:08:06.853Z,66.70
2017-08-04T22:10:34.934Z,65.80
2017-08-04T22:13:02.987Z,65.90
2017-08-04T22:15:31.059Z,66.30
2017-08-04T22:17:59.128Z,66.50
2017-08-04T22:20:27.195Z,67.20
2017-08-04T22:22:55.275Z,67.40
2017-08-04T22:25:23.334Z,67.60
2017-08-04T22:27:51.420Z,67.90
2017-08-04T22:30:19.482Z,67.80
2017-08-04T22:32:47.583Z,67.50
2017-08-04T22:35:15.651Z,67.70
2017-08-04T22:37:43.720Z,68.40
2017-08-04T22:40:11.791Z,68.80
2017-08-04T22:42:39.859Z,68.50
2017-08-04T22:45:07.927Z,68.60
2017-08-04T22:47:35.982Z,68.70
2017-08-04T22:50:04.846Z,68.90
2017-08-04T22:52:32.901Z,68.90
2017-08-04T22:55:00.974Z,69.30
2017-08-04T22:57:29.045Z,69.50
2017-08-04T22:59:57.080Z,69.10
2017-08-04T23:02:25.164Z,68.70
2017-08-04T23:04:53.248Z,69.00
2017-08-04T23:07:21.305Z,68.50
2017-08-04T23:09:49.383Z,67.90
2017-08-04T23:12:17.431Z,67.40
2017-08-04T23:14:45.515Z,68.50
2017-08-04T23:17:13.594Z,67.50
2017-08-04T23:19:41.664Z,66.80
2017-08-04T23:22:09.758Z,67.10
2017-08-04T23:24:37.815Z,67.40
2017-08-04T23:27:05.924Z,67.60
2017-08-04T23:29:33.983Z,67.70
2017-08-04T23:32:02.066Z,67.10
2017-08-04T23:34:30.123Z,66.80
2017-08-04T23:36:58.197Z,66.90
2017-08-04T23:39:26.263Z,67.00
2017-08-04T23:41:54.320Z,66.40
2017-08-04T23:44:22.383Z,66.20
2017-08-04T23:46:50.468Z,65.70
2017-08-04T23:49:18.547Z,66.10
2017-08-04T23:51:46.598Z,65.50
2017-08-04T23:54:14.664Z,64.50
2017-08-04T23:56:42.744Z,66.10
2017-08-04T23:59:10.802Z,65.90
